Wednesday, September 20, 2017, 9:35 PM EDT

KMDT, Harrisburg International Airport

Location: Middletown, PA, United States Lat: 40.2
Local Time: 9:35 PM EDT ( 1:35 GMT) Lon: -76.767
Time Zone: US/Eastern Elev: 308 ft

Show me the last for .
Show Decoded

2017-09-20 20:56 METAR KMDT 210056Z 35003KT 10SM FEW250 22/18 A2996 RMK AO2 SLP143 T02170178 =
2017-09-20 19:56 METAR KMDT 202356Z 32004KT 10SM FEW250 22/18 A2995 RMK AO2 SLP139 T02170183
                 10300 20217 53006 =
2017-09-20 18:56 METAR KMDT 202256Z 32006KT 10SM FEW050 FEW250 27/16 A2994 RMK AO2 SLP135
                 T02670156 =
2017-09-20 17:56 METAR KMDT 202156Z 36006KT 10SM FEW050 FEW250 29/14 A2993 RMK AO2 SLP134
                 T02890144 =
2017-09-20 16:56 METAR KMDT 202056Z 35009KT 10SM FEW050 FEW250 29/14 A2993 RMK AO2 SLP132
                 T02940144 55001 =
2017-09-20 15:56 METAR KMDT 201956Z 35008KT 10SM FEW050 FEW250 29/14 A2993 RMK AO2 SLP132
                 T02940144 =
2017-09-20 14:56 METAR KMDT 201856Z 32010KT 10SM FEW250 29/16 A2993 RMK AO2 SLP132 T02940161 =
2017-09-20 13:56 METAR KMDT 201756Z 35010KT 300V020 10SM CLR 29/18 A2993 RMK AO2 SLP134 T02890178
                 10289 20211 58012 =
2017-09-20 12:56 METAR KMDT 201656Z 32008KT 10SM CLR 28/18 A2995 RMK AO2 SLP141 T02830178 =
2017-09-20 11:56 METAR KMDT 201556Z 29010KT 10SM CLR 26/18 A2996 RMK AO2 SLP144 T02610183 =
2017-09-20 10:56 METAR KMDT 201456Z 29010KT 10SM CLR 25/18 A2997 RMK AO2 SLP147 T02500178 50002 =
2017-09-20 09:56 METAR KMDT 201356Z 31009KT 10SM CLR 24/17 A2998 RMK AO2 SLP150 T02390172 =
2017-09-20 08:56 METAR KMDT 201256Z 31011KT 10SM FEW120 22/17 A2997 RMK AO2 SLP148 T02220167 =
2017-09-20 07:56 METAR KMDT 201156Z 31010KT 10SM BKN120 21/17 A2996 RMK AO2 SLP145 T02110167
                 10211 20200 53017 =
2017-09-20 06:56 METAR KMDT 201056Z 31009KT 10SM BKN120 OVC250 21/17 A2995 RMK AO2 SLP139
                 T02110167 =
2017-09-20 05:56 METAR KMDT 200956Z 30010KT 10SM OVC110 21/18 A2993 RMK AO2 SLP133 T02110178 =
2017-09-20 04:56 METAR KMDT 200856Z 29010KT 10SM OVC100 21/18 A2991 RMK AO2 SLP127 T02110178
                 56005 =
2017-09-20 03:56 METAR KMDT 200756Z 30006KT 8SM OVC100 21/18 A2992 RMK AO2 SLP130 T02060183 =
2017-09-20 02:56 METAR KMDT 200656Z 32006KT 8SM BKN100 21/18 A2992 RMK AO2 SLP131 T02060183 =
2017-09-20 01:56 METAR KMDT 200556Z 32006KT 7SM SCT100 20/19 A2993 RMK AO2 SLP133 T02000189 10228
                 20200 56004 =
2017-09-20 00:56 METAR KMDT 200456Z 30008KT 9SM BKN100 21/19 A2993 RMK AO2 SLP134 T02110189
                 402610172 =
2017-09-19 23:56 METAR KMDT 200356Z 34005KT 8SM BKN100 BKN250 21/19 A2993 RMK AO2 SLP134
                 T02110189 =
2017-09-19 22:56 METAR KMDT 200256Z 33006KT 9SM FEW050 FEW250 21/18 A2994 RMK AO2 SLP138
                 T02060183 53008 =
2017-09-19 21:56 METAR KMDT 200156Z 35003KT 10SM FEW200 21/18 A2993 RMK AO2 SLP133 T02110183 =

Support USWX by starting your Amazon purchase here.